CheckWX is a tool to help pilots better visualize weather data.  It is not intended as a substitute for an official pre-flight weather briefing.

09:01:29 UTC

KMRC METAR
Maury County Airport
Columbia/Mount Pleasant, Tennessee, USA
Current

26 mins ago

KMRC 220835Z AUTO 10006KT 4SM BR SCT029 BKN033 OVC055 07/07 A3013 RMK A01
Observed
Feb-22 @ 08:35 UTC
Wind
  • 100° at 6 KTS
Visibility
4 SM
Flight Rules
MVFR
Conditions
Mist
Cloud Levels
  • Scattered at 2,900' AGL
  • Broken at 3,300' AGL
  • Overcast at 5,500' AGL
Temperature
C / 45°F
Dewpoint
C / 45°F
Humidity
100%
Altimeter
30.13" Hg
Pressure
1020.32 hPa
Previous

46 mins ago

KMRC 220815Z AUTO 36006KT 7SM OVC055 08/08 A3014 RMK A01
Observed
Feb-22 @ 08:15 UTC
Wind
  • 360° at 6 KTS
Visibility
7 SM
Flight Rules
VFR
Cloud Levels
  • Overcast at 5,500' AGL
Temperature
C / 46°F
Dewpoint
C / 46°F
Humidity
100%
Altimeter
30.14" Hg
Pressure
1020.62 hPa
Previous

1 hour ago

KMRC 220755Z AUTO 06003KT 10SM OVC050 08/08 A3014 RMK A01
Observed
Feb-22 @ 07:55 UTC
Wind
  • 060° at 3 KTS
Visibility
10 SM
Flight Rules
VFR
Cloud Levels
  • Overcast at 5,000' AGL
Temperature
C / 46°F
Dewpoint
C / 46°F
Humidity
100%
Altimeter
30.14" Hg
Pressure
1020.62 hPa